Time;durP1;ratioP1;P1;durP2;ratioP2;P2;SDS_P1;SDS_P2;PMS_P1;PMS_P2;Temp;Humidity;BMP_temperature;BMP_pressure;BME280_temperature;BME280_humidity;BME280_pressure;Samples;Min_cycle;Max_cycle;Signal;HPM_P1;HPM_P2
2022/05/17 00:00:42;;;;;;;18.23;6.32;;;14.80;99.90;;;;;;4995467;28;20367;-84
2022/05/17 00:03:08;;;;;;;16.92;5.80;;;14.80;99.90;;;;;;4995429;28;20049;-83
2022/05/17 00:05:34;;;;;;;16.75;5.97;;;14.80;99.90;;;;;;4995504;28;20054;-83
2022/05/17 00:07:59;;;;;;;19.35;6.43;;;14.70;99.90;;;;;;4994920;28;20054;-83
2022/05/17 00:10:26;;;;;;;21.58;6.75;;;14.70;99.90;;;;;;4995280;28;20093;-83
2022/05/17 00:12:53;;;;;;;16.75;6.35;;;14.70;99.90;;;;;;4979120;28;20060;-83
2022/05/17 00:15:20;;;;;;;21.55;6.38;;;14.80;99.90;;;;;;4996449;28;20050;-83
2022/05/17 00:17:48;;;;;;;18.15;6.43;;;14.70;99.90;;;;;;4995214;28;20046;-83
2022/05/17 00:20:15;;;;;;;21.25;6.85;;;14.70;99.90;;;;;;4995133;28;20046;-83
2022/05/17 00:22:41;;;;;;;17.85;7.03;;;14.70;99.90;;;;;;4996573;28;20129;-84
2022/05/17 00:25:08;;;;;;;17.42;6.03;;;14.70;99.90;;;;;;4995245;28;20099;-84
2022/05/17 00:27:34;;;;;;;15.80;6.72;;;14.60;99.90;;;;;;4996314;28;20078;-85
2022/05/17 00:30:01;;;;;;;19.10;6.90;;;14.50;99.90;;;;;;4995282;28;20078;-83
2022/05/17 00:32:26;;;;;;;24.35;7.35;;;14.60;99.90;;;;;;4995098;28;20105;-83
2022/05/17 00:34:52;;;;;;;20.25;6.72;;;14.70;99.90;;;;;;4996201;28;20043;-84
2022/05/17 00:37:19;;;;;;;17.23;6.78;;;14.50;99.90;;;;;;4994620;28;20048;-83
2022/05/17 00:39:45;;;;;;;19.98;6.95;;;14.50;99.90;;;;;;4996166;28;20566;-84
2022/05/17 00:42:10;;;;;;;18.50;7.30;;;14.40;99.90;;;;;;4996005;28;20154;-84
2022/05/17 00:44:45;;;;;;;16.95;6.97;;;14.50;99.90;;;;;;4994696;28;20065;-84
2022/05/17 00:47:35;;;;;;;21.13;7.40;;;14.40;99.90;;;;;;4994742;28;20050;-83
2022/05/17 00:50:29;;;;;;;17.98;6.68;;;14.40;99.90;;;;;;4994495;28;20056;-84
2022/05/17 00:52:59;;;;;;;19.63;6.53;;;14.40;99.90;;;;;;4995725;28;20159;-83
2022/05/17 00:55:42;;;;;;;18.48;6.68;;;14.30;99.90;;;;;;4994481;28;20058;-84
2022/05/17 00:58:18;;;;;;;16.40;6.47;;;14.30;99.90;;;;;;4995491;28;20050;-84
2022/05/17 01:00:55;;;;;;;17.92;7.22;;;14.30;99.90;;;;;;4994601;28;20137;-83
2022/05/17 01:03:24;;;;;;;17.73;6.57;;;14.30;99.90;;;;;;4978769;28;20421;-83
2022/05/17 01:05:54;;;;;;;18.00;6.72;;;14.20;99.90;;;;;;4995236;28;20038;-83
2022/05/17 01:08:22;;;;;;;18.52;6.85;;;14.30;99.90;;;;;;5014480;28;20065;-83
2022/05/17 01:10:49;;;;;;;22.02;7.50;;;14.30;99.90;;;;;;4997625;28;20157;-84
2022/05/17 01:15:58;;;;;;;15.85;6.60;;;14.20;99.90;;;;;;5014836;28;20050;-83
2022/05/17 01:18:25;;;;;;;18.05;6.55;;;14.10;99.90;;;;;;4998342;28;20052;-83
2022/05/17 01:20:51;;;;;;;15.60;6.25;;;14.10;99.90;;;;;;5014821;28;20470;-84
2022/05/17 01:23:16;;;;;;;18.55;6.95;;;14.00;99.90;;;;;;4997041;28;20050;-83
2022/05/17 01:25:44;;;;;;;17.70;7.20;;;14.00;99.90;;;;;;5014829;28;20045;-83
2022/05/17 01:28:24;;;;;;;16.98;6.97;;;14.00;99.90;;;;;;4997014;28;20088;-83
2022/05/17 01:30:49;;;;;;;20.30;7.68;;;13.90;99.90;;;;;;5014700;28;20130;-83
2022/05/17 01:33:17;;;;;;;14.82;6.60;;;13.90;99.90;;;;;;4997266;28;20120;-83
2022/05/17 01:35:43;;;;;;;17.25;7.20;;;13.80;99.90;;;;;;4997155;28;20081;-83
2022/05/17 01:38:09;;;;;;;15.13;7.63;;;13.80;99.90;;;;;;4996810;28;20050;-83
2022/05/17 01:40:36;;;;;;;19.08;7.78;;;13.70;99.90;;;;;;4996843;28;20049;-83
2022/05/17 01:43:01;;;;;;;22.30;7.22;;;13.80;99.90;;;;;;4997044;28;20061;-83
2022/05/17 01:45:27;;;;;;;17.95;7.57;;;13.80;99.90;;;;;;4997086;28;20052;-83
2022/05/17 01:47:54;;;;;;;20.65;8.13;;;13.60;99.90;;;;;;4996751;28;20061;-83
2022/05/17 01:50:19;;;;;;;19.52;7.80;;;13.60;99.90;;;;;;4980474;28;20053;-83
2022/05/17 01:52:45;;;;;;;16.40;7.88;;;13.50;99.90;;;;;;4997070;28;20050;-84
2022/05/17 01:55:11;;;;;;;19.70;8.32;;;13.40;99.90;;;;;;4997362;28;20046;-83
2022/05/17 01:57:37;;;;;;;19.77;7.90;;;13.30;99.90;;;;;;4996521;28;20042;-83
2022/05/17 02:00:08;;;;;;;19.80;7.95;;;13.40;99.90;;;;;;5014333;28;20034;-83
2022/05/17 02:02:34;;;;;;;19.35;8.75;;;13.30;99.90;;;;;;4996934;28;20050;-83
2022/05/17 02:05:00;;;;;;;18.50;8.60;;;13.30;99.90;;;;;;4996781;28;20375;-84
2022/05/17 02:07:25;;;;;;;19.00;7.47;;;13.30;99.90;;;;;;4996366;28;20478;-83
2022/05/17 02:09:51;;;;;;;16.23;7.47;;;13.40;99.90;;;;;;4996386;28;20164;-83
2022/05/17 02:12:17;;;;;;;17.65;7.65;;;13.30;99.90;;;;;;5014105;28;20125;-83
2022/05/17 02:14:44;;;;;;;17.17;7.30;;;13.40;99.90;;;;;;4996658;28;20068;-83
2022/05/17 02:17:10;;;;;;;14.65;7.22;;;13.30;99.90;;;;;;4996355;28;20042;-83
2022/05/17 02:19:36;;;;;;;23.17;7.70;;;13.30;99.90;;;;;;4996660;28;20405;-83
2022/05/17 02:22:01;;;;;;;16.58;7.47;;;13.20;99.90;;;;;;4980192;28;20045;-84
2022/05/17 02:24:27;;;;;;;14.88;8.07;;;13.30;99.90;;;;;;4995690;28;20053;-83
2022/05/17 02:26:55;;;;;;;20.50;7.93;;;13.20;99.90;;;;;;4996577;28;20554;-84
2022/05/17 02:29:21;;;;;;;16.90;7.35;;;13.30;99.90;;;;;;4996579;28;20104;-83
2022/05/17 02:31:47;;;;;;;17.08;7.00;;;13.20;99.90;;;;;;5011620;28;20053;-84
2022/05/17 02:34:13;;;;;;;16.88;6.93;;;13.10;99.90;;;;;;5011231;28;20034;-83
2022/05/17 02:36:39;;;;;;;14.85;7.57;;;13.00;99.90;;;;;;5018921;28;20592;-84
2022/05/17 02:39:04;;;;;;;13.27;6.78;;;13.20;99.90;;;;;;4996167;28;20046;-83
2022/05/17 02:41:30;;;;;;;13.75;7.10;;;13.00;99.90;;;;;;4996474;28;20393;-83
2022/05/17 02:43:56;;;;;;;14.95;7.25;;;13.00;99.90;;;;;;4996225;28;20041;-83
2022/05/17 02:46:21;;;;;;;17.77;7.20;;;13.00;99.90;;;;;;4996175;28;20200;-83
2022/05/17 02:48:47;;;;;;;16.45;7.40;;;12.90;99.90;;;;;;5013756;28;20049;-83
2022/05/17 02:51:20;;;;;;;18.35;7.97;;;13.00;99.90;;;;;;4996416;28;20425;-83
2022/05/17 02:53:46;;;;;;;13.95;6.70;;;12.80;99.90;;;;;;4995881;28;20054;-83
2022/05/17 02:56:12;;;;;;;17.33;7.90;;;12.80;99.90;;;;;;4996140;28;20064;-83
2022/05/17 02:58:38;;;;;;;16.48;8.18;;;13.00;99.90;;;;;;4979851;28;20041;-83
2022/05/17 03:01:05;;;;;;;16.70;8.15;;;12.90;99.90;;;;;;4996133;28;20046;-83
2022/05/17 03:03:31;;;;;;;16.35;8.20;;;12.60;99.90;;;;;;4995960;28;20058;-83
2022/05/17 03:05:57;;;;;;;24.20;8.95;;;12.70;99.90;;;;;;5014103;28;20116;-84
2022/05/17 03:08:22;;;;;;;16.52;8.35;;;12.60;99.90;;;;;;4995622;28;20541;-84
2022/05/17 03:10:48;;;;;;;19.80;9.00;;;12.60;99.90;;;;;;4995853;28;20048;-83
2022/05/17 03:13:15;;;;;;;20.30;8.95;;;12.70;99.90;;;;;;4995852;28;20089;-83
2022/05/17 03:15:42;;;;;;;14.48;8.27;;;12.70;99.90;;;;;;4979655;28;20096;-83
2022/05/17 03:18:08;;;;;;;22.73;9.38;;;12.70;99.90;;;;;;4992833;22;20081;-83
2022/05/17 03:20:33;;;;;;;18.67;8.88;;;12.60;99.90;;;;;;5013486;28;20098;-83
2022/05/17 03:22:59;;;;;;;18.73;9.02;;;12.60;99.90;;;;;;5013470;28;20121;-83
2022/05/17 03:25:25;;;;;;;20.13;8.80;;;12.60;99.90;;;;;;5012712;28;20141;-83
2022/05/17 03:27:52;;;;;;;18.98;9.30;;;12.50;99.90;;;;;;4996261;28;20136;-84
2022/05/17 03:30:17;;;;;;;20.90;9.73;;;12.60;99.90;;;;;;5013305;28;20046;-83
2022/05/17 03:32:43;;;;;;;19.73;9.50;;;12.50;99.90;;;;;;4995559;28;20393;-83
2022/05/17 03:35:09;;;;;;;26.30;9.52;;;12.50;99.90;;;;;;5014864;28;20103;-84
2022/05/17 03:37:35;;;;;;;19.52;8.57;;;12.50;99.90;;;;;;5016812;28;20073;-83
2022/05/17 03:40:02;;;;;;;15.98;8.13;;;12.50;99.90;;;;;;4999318;28;20461;-83
2022/05/17 03:42:28;;;;;;;17.80;8.30;;;12.60;99.90;;;;;;5016738;28;20096;-83
2022/05/17 03:44:53;;;;;;;17.92;8.55;;;12.60;99.90;;;;;;4999284;28;20077;-83
2022/05/17 03:47:19;;;;;;;19.67;9.15;;;12.50;99.90;;;;;;5017012;28;20053;-83
2022/05/17 03:49:45;;;;;;;19.42;8.45;;;12.60;99.90;;;;;;5016682;28;20046;-83
2022/05/17 03:52:11;;;;;;;16.65;8.10;;;12.60;99.90;;;;;;4999187;28;20077;-83
2022/05/17 03:54:37;;;;;;;15.80;7.75;;;12.60;99.90;;;;;;4999149;28;20392;-83
2022/05/17 03:57:04;;;;;;;22.20;9.73;;;12.60;99.90;;;;;;4998717;28;20054;-83
2022/05/17 03:59:30;;;;;;;17.83;8.27;;;12.70;99.90;;;;;;4998750;28;20100;-84
2022/05/17 04:01:55;;;;;;;18.95;8.32;;;12.70;99.90;;;;;;4998808;28;20046;-84
2022/05/17 04:04:21;;;;;;;21.50;8.45;;;12.70;99.90;;;;;;4998699;28;20049;-83
2022/05/17 04:06:47;;;;;;;18.27;8.68;;;12.80;99.90;;;;;;4998649;28;20132;-83
2022/05/17 04:09:13;;;;;;;16.30;8.15;;;12.80;99.90;;;;;;5016252;28;20045;-83
2022/05/17 04:11:38;;;;;;;17.95;8.57;;;12.80;99.90;;;;;;4998426;28;20084;-83
2022/05/17 04:14:04;;;;;;;15.65;8.27;;;12.80;99.90;;;;;;4998722;28;20046;-83
2022/05/17 04:16:36;;;;;;;18.90;7.80;;;12.90;99.90;;;;;;4998522;28;20045;-83
2022/05/17 04:19:02;;;;;;;20.58;8.85;;;12.90;99.90;;;;;;4982213;28;20133;-83
2022/05/17 04:21:31;;;;;;;17.27;8.60;;;13.00;99.90;;;;;;4982195;28;20057;-84
2022/05/17 04:23:56;;;;;;;20.92;7.93;;;13.10;99.90;;;;;;4982241;28;20044;-83
2022/05/17 04:26:23;;;;;;;18.63;8.43;;;13.20;99.90;;;;;;4998431;28;20042;-85
2022/05/17 04:28:49;;;;;;;17.30;7.82;;;13.20;99.90;;;;;;4998218;28;20440;-83
2022/05/17 04:31:15;;;;;;;15.00;7.55;;;13.30;99.90;;;;;;5015833;28;20042;-83
2022/05/17 04:33:43;;;;;;;17.85;7.45;;;13.40;99.90;;;;;;5015983;28;20042;-84
2022/05/17 04:36:10;;;;;;;15.63;7.88;;;13.40;99.90;;;;;;4998413;28;20045;-84
2022/05/17 04:38:36;;;;;;;12.95;6.72;;;13.60;99.90;;;;;;4998121;28;20054;-83
2022/05/17 04:41:02;;;;;;;16.85;7.85;;;13.60;99.90;;;;;;4997931;28;20045;-83
2022/05/17 04:43:29;;;;;;;14.63;7.18;;;13.70;99.90;;;;;;4997838;28;20056;-83
2022/05/17 04:45:55;;;;;;;14.93;7.35;;;13.70;99.90;;;;;;4997315;28;20501;-83
2022/05/17 04:48:24;;;;;;;13.60;6.63;;;13.80;99.90;;;;;;4997541;28;20048;-84
2022/05/17 04:50:53;;;;;;;14.52;6.28;;;13.90;99.90;;;;;;4997712;28;20041;-84
2022/05/17 04:53:19;;;;;;;15.15;6.35;;;13.90;99.90;;;;;;4981861;28;20487;-84
2022/05/17 04:55:45;;;;;;;18.08;6.35;;;14.10;99.90;;;;;;5015247;28;20081;-84
2022/05/17 04:58:11;;;;;;;14.38;6.78;;;14.10;99.90;;;;;;5015253;28;20052;-84
2022/05/17 05:00:37;;;;;;;15.00;6.65;;;14.40;99.90;;;;;;5015281;28;20042;-83
2022/05/17 05:03:03;;;;;;;12.88;6.47;;;14.30;99.90;;;;;;5015310;28;20472;-84
2022/05/17 05:05:29;;;;;;;14.48;6.00;;;14.40;99.90;;;;;;4997576;28;20081;-83
2022/05/17 05:07:55;;;;;;;14.75;6.00;;;14.50;99.90;;;;;;5014879;28;20077;-84
2022/05/17 05:10:21;;;;;;;15.98;5.80;;;14.60;99.90;;;;;;4997632;28;20511;-83
2022/05/17 05:12:48;;;;;;;13.07;5.75;;;14.60;99.90;;;;;;5015063;28;20042;-83
2022/05/17 05:15:14;;;;;;;13.82;6.65;;;14.70;99.90;;;;;;5014981;28;20085;-84
2022/05/17 05:17:43;;;;;;;13.23;5.80;;;14.70;99.90;;;;;;4997092;28;20489;-83
2022/05/17 05:20:13;;;;;;;15.23;5.78;;;14.70;99.90;;;;;;4997021;28;20497;-83
2022/05/17 05:22:38;;;;;;;12.75;6.13;;;14.80;99.90;;;;;;4997551;28;20081;-84
2022/05/17 05:25:05;;;;;;;17.05;5.15;;;14.80;99.90;;;;;;4997451;28;20477;-83
2022/05/17 05:27:32;;;;;;;15.27;5.78;;;14.90;99.90;;;;;;5014597;28;20038;-84
2022/05/17 05:29:58;;;;;;;13.05;6.25;;;14.90;99.90;;;;;;4998312;28;20042;-83
2022/05/17 05:32:24;;;;;;;13.02;5.32;;;15.00;99.90;;;;;;4982438;28;20054;-83
2022/05/17 05:34:50;;;;;;;14.95;5.28;;;15.10;99.90;;;;;;5014773;28;20546;-84
2022/05/17 05:37:16;;;;;;;16.60;5.97;;;15.10;99.90;;;;;;4997217;28;20046;-84
2022/05/17 05:39:42;;;;;;;18.85;5.80;;;15.10;99.90;;;;;;5014794;28;20042;-84
2022/05/17 05:42:08;;;;;;;15.98;5.50;;;15.20;99.90;;;;;;5014772;28;20132;-84
2022/05/17 05:44:34;;;;;;;15.10;4.97;;;15.20;99.90;;;;;;5014891;28;20454;-83
2022/05/17 05:47:00;;;;;;;13.95;4.72;;;15.30;99.90;;;;;;5014709;28;20377;-86
2022/05/17 05:49:26;;;;;;;15.23;5.05;;;15.40;99.90;;;;;;4996753;28;20045;-85
2022/05/17 05:51:52;;;;;;;11.77;4.60;;;15.50;99.90;;;;;;4997190;28;20180;-85
2022/05/17 05:54:17;;;;;;;12.48;5.18;;;15.70;99.90;;;;;;5014402;28;20042;-85
2022/05/17 05:56:43;;;;;;;14.30;4.85;;;15.80;99.90;;;;;;4996578;28;20046;-85
2022/05/17 05:59:09;;;;;;;11.98;4.45;;;15.80;99.90;;;;;;4996629;28;20046;-86
2022/05/17 06:01:36;;;;;;;19.55;5.25;;;16.00;99.90;;;;;;4996563;28;20121;-84
2022/05/17 06:04:02;;;;;;;11.35;4.88;;;16.00;99.90;;;;;;4996641;28;20132;-84
2022/05/17 06:06:28;;;;;;;12.50;4.13;;;16.00;99.90;;;;;;5014307;28;20042;-84
2022/05/17 06:08:55;;;;;;;11.35;4.10;;;16.00;99.90;;;;;;5013916;28;20378;-84
2022/05/17 06:11:20;;;;;;;11.07;3.92;;;16.00;99.90;;;;;;5014354;28;20065;-84
2022/05/17 06:13:47;;;;;;;14.13;4.82;;;16.00;99.90;;;;;;4996646;28;20485;-84
2022/05/17 06:16:13;;;;;;;12.27;4.03;;;16.00;99.90;;;;;;5014139;28;20053;-85
2022/05/17 06:18:39;;;;;;;11.50;4.38;;;16.20;99.90;;;;;;5013784;28;20054;-84
2022/05/17 06:21:05;;;;;;;14.00;4.78;;;16.30;99.90;;;;;;4996416;28;20050;-84
2022/05/17 06:23:31;;;;;;;11.93;4.18;;;16.30;99.90;;;;;;5014049;28;20052;-83
2022/05/17 06:25:58;;;;;;;12.05;4.53;;;16.30;99.90;;;;;;4996290;28;20114;-83
2022/05/17 06:28:24;;;;;;;15.48;4.50;;;16.40;99.90;;;;;;4979985;28;20037;-84
2022/05/17 06:30:50;;;;;;;10.95;4.20;;;16.40;99.90;;;;;;4996409;28;20057;-85
2022/05/17 06:33:16;;;;;;;12.18;4.55;;;16.30;99.90;;;;;;4996244;28;20116;-84
2022/05/17 06:35:43;;;;;;;14.15;4.80;;;16.30;99.90;;;;;;4996229;28;20077;-86
2022/05/17 06:38:09;;;;;;;16.20;5.70;;;16.30;99.90;;;;;;4996262;28;20046;-84
2022/05/17 06:40:36;;;;;;;11.93;4.35;;;16.40;99.90;;;;;;4996566;28;20057;-84
2022/05/17 06:43:02;;;;;;;13.13;5.20;;;16.50;99.90;;;;;;4996371;28;20144;-85
2022/05/17 06:45:27;;;;;;;16.42;4.80;;;16.50;99.90;;;;;;4980203;28;20129;-84
2022/05/17 06:47:53;;;;;;;15.65;4.32;;;16.60;99.90;;;;;;4996067;28;20128;-85
2022/05/17 06:50:19;;;;;;;12.32;4.05;;;16.70;99.90;;;;;;5013793;28;20046;-84
2022/05/17 06:52:44;;;;;;;11.65;4.40;;;16.80;99.90;;;;;;5013712;28;20133;-84
2022/05/17 06:55:11;;;;;;;13.88;4.50;;;16.90;99.90;;;;;;5013749;28;20037;-84
2022/05/17 06:57:40;;;;;;;11.73;4.80;;;17.00;99.90;;;;;;4996051;28;20045;-84
2022/05/17 07:00:08;;;;;;;14.25;4.60;;;17.10;99.90;;;;;;4995986;28;20038;-85
2022/05/17 07:02:35;;;;;;;14.40;4.90;;;17.10;99.90;;;;;;4995881;28;20053;-85
2022/05/17 07:05:00;;;;;;;11.60;4.18;;;17.20;99.90;;;;;;4996303;28;20085;-84
2022/05/17 07:07:26;;;;;;;10.93;4.03;;;17.40;99.90;;;;;;5013582;28;20041;-85
2022/05/17 07:15:21;;;;;;;10.80;4.40;;;17.80;99.90;;;;;;4999921;28;20085;-86
2022/05/17 07:17:47;;;;;;;10.85;4.20;;;17.90;99.90;;;;;;4999596;28;20085;-85
2022/05/17 07:20:13;;;;;;;11.57;4.32;;;18.00;99.90;;;;;;5017036;28;20089;-84
2022/05/17 07:22:39;;;;;;;14.65;4.57;;;18.10;99.90;;;;;;4999668;28;20057;-85
2022/05/17 07:25:05;;;;;;;12.18;4.28;;;18.20;99.90;;;;;;4999304;28;20054;-84
2022/05/17 07:27:31;;;;;;;16.90;4.72;;;18.30;99.90;;;;;;5017073;28;20124;-84
2022/05/17 07:29:57;;;;;;;11.68;4.40;;;18.30;99.90;;;;;;4999371;28;20121;-84
2022/05/17 07:32:22;;;;;;;13.73;4.63;;;18.40;99.90;;;;;;4999586;28;20061;-84
2022/05/17 07:34:48;;;;;;;11.43;4.20;;;18.40;99.90;;;;;;4999444;28;20061;-85
2022/05/17 07:37:14;;;;;;;12.20;3.70;;;18.50;99.90;;;;;;5016739;28;20050;-84
2022/05/17 07:39:40;;;;;;;10.10;3.80;;;18.60;99.90;;;;;;4999286;28;20504;-85
2022/05/17 07:42:07;;;;;;;10.57;3.85;;;18.80;99.90;;;;;;4983284;28;20042;-86
2022/05/17 07:44:34;;;;;;;11.60;3.97;;;18.80;99.90;;;;;;4999512;28;20041;-86
2022/05/17 07:47:00;;;;;;;14.00;5.43;;;19.00;99.90;;;;;;4999302;28;20385;-86
2022/05/17 07:49:27;;;;;;;12.52;4.10;;;19.10;99.90;;;;;;4999548;28;20073;-86
2022/05/17 07:51:53;;;;;;;12.15;4.10;;;19.20;99.90;;;;;;5000569;28;20069;-86
2022/05/17 07:54:19;;;;;;;11.98;3.83;;;19.30;99.90;;;;;;4998848;28;20049;-86
2022/05/17 07:56:44;;;;;;;10.43;4.00;;;19.40;99.90;;;;;;4998628;28;20041;-86
2022/05/17 07:59:10;;;;;;;12.32;4.03;;;19.50;99.90;;;;;;4998867;28;20045;-86
2022/05/17 08:01:36;;;;;;;12.43;3.80;;;19.60;99.90;;;;;;4998714;28;20038;-86
2022/05/17 08:04:02;;;;;;;7.63;3.42;;;19.60;99.90;;;;;;4998668;28;20160;-88
2022/05/17 08:06:28;;;;;;;9.60;3.50;;;19.70;99.90;;;;;;4982799;28;20034;-86
2022/05/17 08:08:53;;;;;;;10.98;3.67;;;19.80;99.90;;;;;;4998478;28;20493;-87
2022/05/17 08:11:19;;;;;;;14.73;3.50;;;19.80;99.90;;;;;;4982467;28;20049;-85
2022/05/17 08:13:46;;;;;;;8.77;3.45;;;19.90;99.90;;;;;;4998836;28;20038;-86
2022/05/17 08:16:12;;;;;;;9.90;3.30;;;20.00;99.90;;;;;;4999023;28;20057;-89
2022/05/17 08:18:37;;;;;;;12.45;3.45;;;20.10;99.90;;;;;;4997931;28;20062;-87
2022/05/17 08:21:03;;;;;;;11.40;3.67;;;20.20;99.90;;;;;;4997365;28;20068;-88
2022/05/17 08:23:29;;;;;;;15.85;3.72;;;20.30;99.90;;;;;;4981907;28;20061;-87
2022/05/17 08:28:38;;;;;;;12.48;3.88;;;20.50;99.90;;;;;;4998512;28;20049;-88
2022/05/17 08:31:04;;;;;;;13.63;3.97;;;20.50;99.90;;;;;;4982314;28;20042;-88
2022/05/17 08:33:30;;;;;;;11.88;3.53;;;20.60;99.90;;;;;;4981951;28;20041;-88
2022/05/17 08:36:02;;;;;;;10.07;2.97;;;20.70;99.90;;;;;;4998153;28;20053;-88
2022/05/17 08:38:38;;;;;;;11.32;2.92;;;20.80;99.90;;;;;;4998128;28;20048;-88
2022/05/17 08:41:23;;;;;;;12.85;3.55;;;20.90;99.90;;;;;;4997975;28;20161;-90
2022/05/17 08:43:54;;;;;;;;;;;21.00;99.90;;;;;;4982791;28;20048;-86
2022/05/17 08:46:19;;;;;;;10.00;2.78;;;21.00;99.90;;;;;;5000195;28;19921;-87
2022/05/17 08:48:52;;;;;;;9.00;2.85;;;21.20;99.90;;;;;;5002052;28;20097;-87
2022/05/17 08:51:28;;;;;;;8.32;3.10;;;21.30;99.90;;;;;;4985316;28;20045;-87
2022/05/17 08:53:54;;;;;;;7.88;3.05;;;21.30;99.90;;;;;;4998198;28;20440;-87
2022/05/17 08:56:20;;;;;;;12.98;2.80;;;21.50;99.90;;;;;;4981627;28;20038;-87
2022/05/17 08:58:48;;;;;;;8.90;2.38;;;21.60;99.90;;;;;;4991206;28;20041;-87
2022/05/17 09:01:25;;;;;;;10.45;2.50;;;21.80;99.90;;;;;;4996708;28;20058;-87
2022/05/17 09:04:15;;;;;;;8.70;2.92;;;21.90;99.90;;;;;;5013573;28;20050;-87
2022/05/17 09:06:56;;;;;;;7.93;3.10;;;21.90;99.90;;;;;;5005051;28;20049;-86
2022/05/17 09:09:30;;;;;;;10.73;2.28;;;21.90;99.90;;;;;;4981950;28;20046;-86
2022/05/17 09:12:07;;;;;;;6.65;1.98;;;22.10;99.90;;;;;;4997686;28;20163;-86
2022/05/17 09:14:38;;;;;;;10.40;2.80;;;22.40;99.90;;;;;;4997367;28;20107;-86
2022/05/17 09:17:12;;;;;;;7.70;2.40;;;22.20;99.90;;;;;;4997442;28;20053;-86
2022/05/17 09:19:38;;;;;;;13.35;2.55;;;22.10;99.90;;;;;;4993479;28;20050;-87
2022/05/17 09:22:06;;;;;;;8.52;2.03;;;22.00;99.90;;;;;;4995378;28;20049;-87
2022/05/17 09:24:44;;;;;;;10.15;2.20;;;21.80;99.90;;;;;;4994075;28;20474;-87
2022/05/17 09:27:38;;;;;;;10.98;2.13;;;21.60;99.90;;;;;;4993852;28;20081;-87
2022/05/17 09:30:06;;;;;;;6.10;1.70;;;21.50;99.90;;;;;;4994000;28;20053;-85
2022/05/17 09:32:37;;;;;;;8.40;1.70;;;21.50;99.90;;;;;;4993710;28;20430;-86
2022/05/17 09:35:20;;;;;;;9.85;1.83;;;21.40;99.90;;;;;;4993669;28;20054;-86
2022/05/17 09:37:51;;;;;;;9.73;2.28;;;21.40;99.90;;;;;;4993649;28;20522;-86
2022/05/17 09:40:23;;;;;;;10.80;2.13;;;21.40;99.90;;;;;;4993721;28;20181;-86
2022/05/17 09:43:04;;;;;;;6.55;1.80;;;21.60;99.90;;;;;;4994971;28;20050;-86
2022/05/17 09:46:00;;;;;;;10.38;2.22;;;21.70;99.90;;;;;;4993699;28;20048;-85
2022/05/17 09:52:32;;;;;;;7.45;1.92;;;21.80;99.90;;;;;;4993597;28;20517;-87
2022/05/17 09:54:31;;;;;;;8.15;2.10;;;21.70;99.90;;;;;;4993316;28;20088;-86
2022/05/17 09:57:17;;;;;;;10.45;2.00;;;21.80;99.90;;;;;;4993281;28;20100;-86
2022/05/17 09:59:44;;;;;;;8.55;1.60;;;22.10;99.90;;;;;;4993498;28;20042;-86
2022/05/17 10:02:34;;;;;;;5.95;1.50;;;22.30;99.90;;;;;;4993496;28;20100;-86
2022/05/17 10:05:25;;;;;;;11.23;1.50;;;22.50;99.90;;;;;;4993378;28;20478;-85
2022/05/17 10:07:55;;;;;;;9.23;2.00;;;22.60;99.90;;;;;;4994003;28;20050;-86
2022/05/17 10:10:22;;;;;;;9.05;2.05;;;22.50;99.90;;;;;;4994695;28;20038;-86
2022/05/17 10:12:51;;;;;;;9.75;2.30;;;22.60;99.90;;;;;;4995578;28;20046;-85
2022/05/17 10:15:19;;;;;;;8.60;2.45;;;22.80;99.90;;;;;;4994623;28;20046;-86
2022/05/17 10:17:59;;;;;;;7.55;2.00;;;22.90;99.90;;;;;;4992995;28;20112;-87
2022/05/17 10:20:35;;;;;;;5.55;1.58;;;23.00;99.90;;;;;;4992681;28;20086;-86
2022/05/17 10:23:21;;;;;;;7.45;2.00;;;23.10;99.90;;;;;;4994419;28;20129;-85
2022/05/17 10:25:55;;;;;;;6.72;1.80;;;23.30;99.90;;;;;;4993598;28;20050;-85
2022/05/17 10:28:29;;;;;;;8.57;2.58;;;23.30;99.90;;;;;;4993132;28;20042;-84
2022/05/17 10:30:57;;;;;;;9.38;2.38;;;;;;;;;;4993497;28;20108;-91
2022/05/17 10:33:35;;;;;;;8.20;2.45;;;;;;;;;;4993188;28;20054;-87
2022/05/17 10:36:03;;;;;;;7.80;1.83;;;;;;;;;;4992828;28;20061;-88
2022/05/17 10:38:38;;;;;;;7.05;1.67;;;;;;;;;;4992840;28;20105;-90
2022/05/17 10:41:05;;;;;;;7.32;1.67;;;;;;;;;;4993942;28;20054;-91
2022/05/17 10:43:41;;;;;;;5.10;1.77;;;;;;;;;;4993133;28;20557;-87
2022/05/17 10:46:18;;;;;;;8.27;1.98;;;;;;;;;;4996626;28;20054;-90
2022/05/17 10:48:59;;;;;;;6.05;1.73;;;;;;;;;;4997194;28;20141;-88
2022/05/17 10:51:43;;;;;;;6.57;2.13;;;;;;;;;;4981139;28;20051;-87
2022/05/17 10:54:09;;;;;;;8.13;1.92;;;;;;;;;;5000715;28;20053;-88
2022/05/17 10:56:47;;;;;;;4.93;1.63;;;;;;;;;;4990572;28;20050;-87
2022/05/17 10:59:14;;;;;;;7.38;1.50;;;;;;;;;;5009649;28;20042;-87
2022/05/17 11:01:55;;;;;;;8.10;1.88;;;;;;;;;;5010537;28;20042;-87
2022/05/17 11:04:24;;;;;;;7.07;1.50;;;;;;;;;;5007934;28;20425;-88
2022/05/17 11:06:53;;;;;;;8.57;1.98;;;;;;;;;;4990176;28;20049;-87
2022/05/17 11:09:26;;;;;;;9.20;1.77;;;;;;;;;;5001844;28;20046;-87
2022/05/17 11:12:00;;;;;;;7.25;1.48;;;;;;;;;;4996779;28;20056;-88
2022/05/17 11:14:41;;;;;;;7.55;1.80;;;;;;;;;;4980499;28;20086;-87
2022/05/17 11:17:10;;;;;;;7.32;1.85;;;;;;;;;;4996694;28;20050;-87
2022/05/17 11:19:45;;;;;;;5.40;1.88;;;;;;;;;;4996227;28;20058;-87
2022/05/17 11:22:18;;;;;;;5.20;1.63;;;;;;;;;;4980334;28;20050;-87
2022/05/17 11:24:47;;;;;;;6.75;2.00;;;;;;;;;;4980359;28;20042;-87
2022/05/17 11:27:13;;;;;;;7.10;1.95;;;;;;;;;;4980136;28;20054;-88
2022/05/17 11:29:55;;;;;;;11.55;1.88;;;;;;;;;;4996670;28;20493;-87
2022/05/17 11:32:33;;;;;;;8.48;2.17;;;;;;;;;;4996142;28;20046;-87
2022/05/17 11:35:02;;;;;;;8.95;2.03;;;;;;;;;;4996009;28;20053;-86
2022/05/17 11:37:34;;;;;;;7.82;2.05;;;;;;;;;;4979747;28;20046;-85
2022/05/17 11:40:07;;;;;;;7.60;2.45;;;;;;;;;;4995979;28;20077;-89
2022/05/17 11:42:35;;;;;;;8.18;2.25;;;;;;;;;;4979810;28;20133;-86
2022/05/17 11:45:18;;;;;;;4.43;1.75;;;;;;;;;;4996055;28;20141;-86
2022/05/17 11:47:44;;;;;;;9.73;2.30;;;;;;;;;;4996199;28;20053;-86
2022/05/17 11:50:20;;;;;;;10.25;2.05;;;;;;;;;;4979802;28;20073;-87
2022/05/17 11:52:48;;;;;;;6.00;1.95;;;;;;;;;;4996041;28;20042;-87
2022/05/17 11:55:17;;;;;;;9.10;2.13;;;;;;;;;;4995427;28;20065;-87
2022/05/17 11:57:49;;;;;;;7.63;1.75;;;;;;;;;;4995716;28;20046;-87
2022/05/17 12:00:39;;;;;;;7.10;1.83;;;;;;;;;;4995795;28;20046;-86
2022/05/17 12:03:05;;;;;;;9.75;2.30;;;;;;;;;;4979528;28;20046;-86
2022/05/17 12:05:51;;;;;;;6.20;2.00;;;;;;;;;;4995529;28;20088;-87
2022/05/17 12:08:31;;;;;;;6.53;2.08;;;;;;;;;;4985405;28;20055;-86
2022/05/17 12:11:00;;;;;;;9.18;1.90;;;;;;;;;;4995292;28;20129;-86
2022/05/17 12:13:26;;;;;;;6.30;1.85;;;;;;;;;;4996627;28;20050;-86
2022/05/17 12:15:52;;;;;;;6.35;1.77;;;;;;;;;;4995230;28;20049;-86
2022/05/17 12:18:35;;;;;;;7.32;2.35;;;;;;;;;;4995325;28;20062;-86
2022/05/17 12:21:07;;;;;;;7.05;1.90;;;;;;;;;;4994970;28;20390;-86
2022/05/17 12:23:45;;;;;;;7.00;2.00;;;;;;;;;;4995669;28;20068;-86
2022/05/17 12:26:18;;;;;;;7.28;2.30;;;;;;;;;;4995343;28;20045;-86
2022/05/17 12:28:49;;;;;;;9.20;2.10;;;;;;;;;;4995110;28;20057;-87
2022/05/17 12:31:25;;;;;;;6.60;1.85;;;;;;;;;;4995081;28;20047;-86
2022/05/17 12:33:53;;;;;;;7.05;1.80;;;;;;;;;;4995399;28;20051;-86
2022/05/17 12:36:19;;;;;;;7.13;2.25;;;;;;;;;;5006662;28;20424;-86
2022/05/17 12:44:41;;;;;;;8.02;2.30;;;;;;;;;;4939078;29;20093;-87
2022/05/17 12:47:13;;;;;;;5.68;1.77;;;;;;;;;;4939499;29;20059;-86
2022/05/17 12:49:42;;;;;;;6.57;2.10;;;;;;;;;;4939287;29;20078;-87
2022/05/17 12:52:13;;;;;;;5.03;1.77;;;;;;;;;;4939329;29;20050;-86
2022/05/17 12:54:40;;;;;;;6.75;2.38;;;;;;;;;;4939164;29;20251;-86
2022/05/17 12:57:16;;;;;;;6.75;2.03;;;;;;;;;;4923076;29;20138;-86
2022/05/17 12:59:42;;;;;;;8.32;2.50;;;;;;;;;;4938895;29;20178;-86
2022/05/17 13:02:08;;;;;;;7.93;2.35;;;;;;;;;;4938814;29;20063;-86
2022/05/17 13:04:38;;;;;;;7.72;2.05;;;;;;;;;;4938648;29;20047;-86
2022/05/17 13:07:14;;;;;;;6.72;1.95;;;;;;;;;;4938240;29;20062;-86
2022/05/17 13:10:12;;;;;;;5.78;2.00;;;;;;;;;;4938660;29;20071;-86
2022/05/17 13:12:42;;;;;;;8.18;2.30;;;;;;;;;;4897642;29;20233;-86
2022/05/17 13:15:09;;;;;;;6.95;1.83;;;;;;;;;;4881922;29;20072;-87
2022/05/17 13:17:38;;;;;;;5.15;2.00;;;;;;;;;;4881924;29;20057;-87
2022/05/17 13:20:14;;;;;;;6.18;1.88;;;;;;;;;;4890664;29;20197;-86
2022/05/17 13:22:42;;;;;;;7.75;2.33;;;;;;;;;;4917719;29;20066;-86
2022/05/17 13:25:09;;;;;;;7.18;2.38;;;;;;;;;;4903675;29;20043;-86
2022/05/17 13:27:37;;;;;;;9.60;2.85;;;;;;;;;;4919686;29;20446;-87
2022/05/17 13:30:07;;;;;;;7.68;2.00;;;;;;;;;;4904076;29;20058;-86
2022/05/17 13:32:36;;;;;;;5.38;2.10;;;;;;;;;;4919244;29;20569;-86